Current Conditions
Partly Cloudy
Conditions



Pressure
1015.92 (hPa) - 30 (inHG)
Visibility

9.7 (km) - 6.0 (miles)
Temperature
12  °C
Temperature
6  °C
Dewpoint
67  %
 Humidity
Wind Speed
10  km/h
5  kts
6  mph
2.7  m/s
Wind Direction
N
45°
E
90°
135°
S
180°
225°
W
270°
315°
 120°

East South
East
Airport Data
LGTS
Thessaloniki Macedonia International Airport
Metar :LGTS 240220Z 12005KT 9999 FEW030 12/06 Q1016 NOSIG
Sat 24th February 04:20 am
Raw Metar Info
Raw METAR is the most common format in the world for the transmission of observational weather data. It is highly standardized through the International Civil Aviation Organization (ICAO), which allows it to be understood throughout most of the world.
API Info
Data Provided by
https://www.checkwx.com/weather/LGTS

Aviation Weather providing METAR, TAF, AIRMET, SIGMET and OUTLOOK Weather Reports
© Info
CSS/SVG/PHP scripts were developed by weather34 for use in the weather34 template © 2015-2024

Guide Info provided by Metar-Wikipedia